createdAt,value
2023-05-21T00:02:59.522Z,11.42
2023-05-21T00:08:02.825Z,11.32
2023-05-21T00:13:05.931Z,11.19
2023-05-21T00:18:08.999Z,11.05
2023-05-21T00:23:12.156Z,10.91
2023-05-21T00:28:15.157Z,10.78
2023-05-21T00:33:18.504Z,10.65
2023-05-21T00:38:22.414Z,10.57
2023-05-21T00:43:26.832Z,10.53
2023-05-21T00:48:29.837Z,10.49
2023-05-21T00:53:35.191Z,10.45
2023-05-21T00:58:39.769Z,10.40
2023-05-21T01:03:43.108Z,10.35
2023-05-21T01:08:46.888Z,10.26
2023-05-21T01:13:51.071Z,10.16
2023-05-21T01:18:54.258Z,10.09
2023-05-21T01:23:57.338Z,10.02
2023-05-21T01:29:00.344Z,9.95
2023-05-21T01:34:09.672Z,9.89
2023-05-21T01:39:16.916Z,9.84
2023-05-21T01:44:21.087Z,9.81
2023-05-21T01:49:24.690Z,9.77
2023-05-21T01:54:27.674Z,9.78
2023-05-21T01:59:30.931Z,9.81
2023-05-21T02:04:34.095Z,9.84
2023-05-21T02:09:37.100Z,9.89
2023-05-21T02:14:40.130Z,9.92
2023-05-21T02:19:45.059Z,9.94
2023-05-21T02:24:48.063Z,9.97
2023-05-21T02:29:51.177Z,10.01
2023-05-21T02:34:54.183Z,10.05
2023-05-21T02:39:57.191Z,10.12
2023-05-21T02:45:00.630Z,10.31
2023-05-21T02:50:05.971Z,10.66
2023-05-21T02:55:09.928Z,10.89
2023-05-21T03:00:13.922Z,11.03
2023-05-21T03:05:16.930Z,11.17
2023-05-21T03:10:19.932Z,11.53
2023-05-21T03:15:24.425Z,12.00
2023-05-21T03:20:28.510Z,13.03
2023-05-21T03:25:31.659Z,13.99
2023-05-21T03:30:34.729Z,14.80
2023-05-21T03:35:38.029Z,15.61
2023-05-21T03:40:41.198Z,16.89
2023-05-21T03:45:44.582Z,18.11
2023-05-21T03:50:48.085Z,19.30
2023-05-21T03:55:55.408Z,20.30
2023-05-21T04:00:58.813Z,21.16
2023-05-21T04:06:03.516Z,22.00
2023-05-21T04:11:06.673Z,22.78
2023-05-21T04:16:09.797Z,23.52
2023-05-21T04:21:13.349Z,24.46
2023-05-21T04:26:16.501Z,25.50
2023-05-21T04:31:19.584Z,26.33
2023-05-21T04:36:22.633Z,26.91
2023-05-21T04:41:25.728Z,27.48
2023-05-21T04:46:28.754Z,28.14
2023-05-21T04:51:32.157Z,28.65
2023-05-21T04:56:35.269Z,28.75
2023-05-21T05:01:38.815Z,28.75
2023-05-21T05:06:41.816Z,28.46
2023-05-21T05:11:44.920Z,27.83
2023-05-21T05:16:50.662Z,27.46
2023-05-21T05:21:54.171Z,27.12
2023-05-21T05:26:57.191Z,26.84
2023-05-21T05:32:00.196Z,26.99
2023-05-21T05:37:04.538Z,27.44
2023-05-21T05:42:07.547Z,27.73
2023-05-21T05:47:11.169Z,27.64
2023-05-21T05:52:14.577Z,27.32
2023-05-21T05:57:17.622Z,27.09
2023-05-21T06:02:20.982Z,27.01
2023-05-21T06:07:24.312Z,27.07
2023-05-21T06:12:27.330Z,27.18
2023-05-21T06:17:30.470Z,27.54
2023-05-21T06:22:34.257Z,27.94
2023-05-21T06:27:38.154Z,28.02
2023-05-21T06:32:41.382Z,27.99
2023-05-21T06:37:44.710Z,28.16
2023-05-21T06:42:47.750Z,28.15
2023-05-21T06:47:50.893Z,28.29
2023-05-21T06:52:54.037Z,28.37
2023-05-21T06:57:58.047Z,28.60
2023-05-21T07:03:01.174Z,28.80
2023-05-21T07:08:04.391Z,28.96
2023-05-21T07:13:07.413Z,29.20
2023-05-21T07:18:10.516Z,29.13
2023-05-21T07:23:13.524Z,29.07
2023-05-21T07:28:16.626Z,29.13
2023-05-21T07:33:20.895Z,29.39
2023-05-21T07:38:23.964Z,29.15
2023-05-21T07:43:26.972Z,28.94
2023-05-21T07:48:30.078Z,29.02
2023-05-21T07:53:33.547Z,29.07
2023-05-21T07:58:36.704Z,29.15
2023-05-21T08:03:39.847Z,29.09
2023-05-21T08:08:43.028Z,29.10
2023-05-21T08:13:46.033Z,29.20
2023-05-21T08:18:49.619Z,29.18
2023-05-21T08:23:53.380Z,29.25
2023-05-21T08:28:56.797Z,29.09
2023-05-21T08:33:59.800Z,28.98
2023-05-21T08:39:02.804Z,29.24
2023-05-21T08:44:12.265Z,29.29
2023-05-21T08:49:18.868Z,28.73
2023-05-21T08:54:22.906Z,28.11
2023-05-21T08:59:26.830Z,27.37
2023-05-21T09:04:31.421Z,26.79
2023-05-21T09:09:42.308Z,26.43
2023-05-21T09:14:47.610Z,26.10
2023-05-21T09:20:15.142Z,25.61
2023-05-21T09:25:28.475Z,25.43
2023-05-21T09:30:33.996Z,25.36
2023-05-21T09:35:45.595Z,25.07
2023-05-21T09:40:48.512Z,24.71
2023-05-21T09:45:53.301Z,24.59
2023-05-21T09:51:08.453Z,24.40
2023-05-21T09:56:11.779Z,24.53
2023-05-21T10:01:14.891Z,24.68
2023-05-21T10:06:19.416Z,24.59
2023-05-21T10:11:26.728Z,24.78
2023-05-21T10:16:33.184Z,24.80
2023-05-21T10:21:37.200Z,24.85
2023-05-21T10:26:41.529Z,25.03
2023-05-21T10:31:49.949Z,25.15
2023-05-21T10:36:55.816Z,25.31
2023-05-21T10:42:26.247Z,25.32
2023-05-21T10:47:50.614Z,25.41
2023-05-21T10:53:20.287Z,25.26
2023-05-21T10:58:48.791Z,25.10
2023-05-21T11:03:52.072Z,25.12
2023-05-21T11:08:55.840Z,25.32
2023-05-21T11:13:59.039Z,25.55
2023-05-21T11:19:03.058Z,25.44
2023-05-21T11:24:08.511Z,25.21
2023-05-21T11:29:12.092Z,25.14
2023-05-21T11:34:28.983Z,25.08
2023-05-21T11:39:40.350Z,25.17
2023-05-21T11:44:45.265Z,25.13
2023-05-21T11:49:49.559Z,25.06
2023-05-21T11:54:58.332Z,25.03
2023-05-21T12:00:04.797Z,25.01
2023-05-21T12:05:10.208Z,24.90
2023-05-21T12:10:13.533Z,24.84
2023-05-21T12:15:18.052Z,24.90
2023-05-21T12:20:21.445Z,24.98
2023-05-21T12:25:24.752Z,25.01
2023-05-21T12:30:28.882Z,25.04
2023-05-21T12:35:32.611Z,25.05
2023-05-21T12:40:38.308Z,25.09
2023-05-21T12:45:43.757Z,25.24
2023-05-21T12:50:47.164Z,25.38
2023-05-21T12:55:50.781Z,25.44
2023-05-21T13:00:56.650Z,25.35
2023-05-21T13:06:00.285Z,25.21
2023-05-21T13:11:04.525Z,25.13
2023-05-21T13:16:08.234Z,25.20
2023-05-21T13:21:11.285Z,25.40
2023-05-21T13:26:14.452Z,25.54
2023-05-21T13:31:17.770Z,25.51
2023-05-21T13:36:20.878Z,25.46
2023-05-21T13:41:23.988Z,25.44
2023-05-21T13:46:27.353Z,25.42
2023-05-21T13:51:38.567Z,25.44
2023-05-21T13:56:42.471Z,25.47
2023-05-21T14:01:45.856Z,25.57
2023-05-21T14:06:48.949Z,25.60
2023-05-21T14:11:52.013Z,25.69
2023-05-21T14:16:55.213Z,25.50
2023-05-21T14:22:00.141Z,25.29
2023-05-21T14:27:03.677Z,25.14
2023-05-21T14:32:07.878Z,25.00
2023-05-21T14:37:10.981Z,25.07
2023-05-21T14:42:14.399Z,25.21
2023-05-21T14:47:17.403Z,25.26
2023-05-21T14:52:20.621Z,25.32
2023-05-21T14:57:23.623Z,25.25
2023-05-21T15:02:26.977Z,25.29
2023-05-21T15:07:30.249Z,25.18
2023-05-21T15:12:33.248Z,25.08
2023-05-21T15:17:36.500Z,24.99
2023-05-21T15:22:39.889Z,24.83
2023-05-21T15:27:42.770Z,24.77
2023-05-21T15:32:45.891Z,24.76
2023-05-21T15:37:49.001Z,24.74
2023-05-21T15:42:52.013Z,24.68
2023-05-21T15:47:55.051Z,24.53
2023-05-21T15:52:58.231Z,24.41
2023-05-21T15:58:04.039Z,24.35
2023-05-21T16:03:07.274Z,24.27
2023-05-21T16:08:12.363Z,24.17
2023-05-21T16:13:15.478Z,24.10
2023-05-21T16:18:18.586Z,24.03
2023-05-21T16:23:21.592Z,23.95
2023-05-21T16:28:27.280Z,23.87
2023-05-21T16:33:30.881Z,23.71
2023-05-21T16:38:33.996Z,23.52
2023-05-21T16:43:37.529Z,23.32
2023-05-21T16:48:42.162Z,23.13
2023-05-21T16:53:45.369Z,22.98
2023-05-21T16:58:48.475Z,22.87
2023-05-21T17:03:51.845Z,22.77
2023-05-21T17:08:55.015Z,22.61
2023-05-21T17:13:58.631Z,22.37
2023-05-21T17:19:01.661Z,22.13
2023-05-21T17:24:05.241Z,21.91
2023-05-21T17:29:08.260Z,21.74
2023-05-21T17:34:12.203Z,21.62
2023-05-21T17:39:15.131Z,21.54
2023-05-21T17:44:19.220Z,21.44
2023-05-21T17:49:22.674Z,21.34
2023-05-21T17:54:26.155Z,21.21
2023-05-21T17:59:29.268Z,21.05
2023-05-21T18:04:32.288Z,20.90
2023-05-21T18:09:35.479Z,20.74
2023-05-21T18:14:38.587Z,20.56
2023-05-21T18:19:41.601Z,20.35
2023-05-21T18:24:44.704Z,20.11
2023-05-21T18:29:49.212Z,19.90
2023-05-21T18:34:52.597Z,19.67
2023-05-21T18:39:55.664Z,19.45
2023-05-21T18:45:05.639Z,19.24
2023-05-21T18:50:11.284Z,19.05
2023-05-21T18:55:14.974Z,18.85
2023-05-21T19:00:18.833Z,18.63
2023-05-21T19:05:22.358Z,18.40
2023-05-21T19:10:25.593Z,18.15
2023-05-21T19:15:28.600Z,17.91
2023-05-21T19:20:31.914Z,17.67
2023-05-21T19:25:35.002Z,17.49
2023-05-21T19:30:38.474Z,17.32
2023-05-21T19:35:43.384Z,17.15
2023-05-21T19:40:46.722Z,16.99
2023-05-21T19:45:49.961Z,16.79
2023-05-21T19:50:53.129Z,16.56
2023-05-21T19:55:56.851Z,16.33
2023-05-21T20:01:00.380Z,16.09
2023-05-21T20:06:04.000Z,15.88
2023-05-21T20:11:07.052Z,15.67
2023-05-21T20:16:10.738Z,15.46
2023-05-21T20:21:17.963Z,15.26
2023-05-21T20:26:22.053Z,15.03
2023-05-21T20:31:25.714Z,14.80
2023-05-21T20:36:30.748Z,14.59
2023-05-21T20:41:38.054Z,14.38
2023-05-21T20:46:41.159Z,14.20
2023-05-21T20:51:44.668Z,14.00
2023-05-21T20:56:50.956Z,13.82
2023-05-21T21:01:54.204Z,13.64
2023-05-21T21:06:57.367Z,13.46
2023-05-21T21:12:06.107Z,13.29
2023-05-21T21:17:14.902Z,13.09
2023-05-21T21:22:18.623Z,12.88
2023-05-21T21:27:21.683Z,12.71
2023-05-21T21:32:25.932Z,12.56
2023-05-21T21:37:29.760Z,12.37
2023-05-21T21:42:32.962Z,12.23
2023-05-21T21:47:36.005Z,12.06
2023-05-21T21:52:40.324Z,11.87
2023-05-21T21:57:43.413Z,11.78
2023-05-21T22:02:46.849Z,11.72
2023-05-21T22:07:51.654Z,11.60
2023-05-21T22:12:54.821Z,11.48
2023-05-21T22:17:58.916Z,11.42
2023-05-21T22:23:01.931Z,11.42
2023-05-21T22:28:05.550Z,11.32
2023-05-21T22:33:08.611Z,11.20
2023-05-21T22:38:11.604Z,11.15
2023-05-21T22:43:14.680Z,11.06
2023-05-21T22:48:18.502Z,10.91
2023-05-21T22:53:21.448Z,10.83
2023-05-21T22:58:24.618Z,10.78
2023-05-21T23:09:25.839Z,10.51
2023-05-21T23:14:28.930Z,10.39
2023-05-21T23:19:33.067Z,10.31
2023-05-21T23:24:36.583Z,10.16
2023-05-21T23:29:39.734Z,10.03
2023-05-21T23:34:43.105Z,9.88
2023-05-21T23:39:49.853Z,9.71
2023-05-21T23:44:53.110Z,9.54
2023-05-21T23:49:56.224Z,9.37
2023-05-21T23:54:59.360Z,9.22
